sensor_id;sensor_type;location;lat;lon;timestamp;pressure;altitude;pressure_sealevel;temperature;humidity
70976;BME280;58635;51.198;6.010;2024-03-06T00:00:25;101583.41;;;11.76;60.10
70976;BME280;58635;51.198;6.010;2024-03-06T00:02:50;101582.44;;;11.77;60.29
70976;BME280;58635;51.198;6.010;2024-03-06T00:05:16;101590.22;;;11.77;60.18
70976;BME280;58635;51.198;6.010;2024-03-06T00:07:41;101599.78;;;11.76;60.21
70976;BME280;58635;51.198;6.010;2024-03-06T00:10:07;101596.38;;;11.76;60.18
70976;BME280;58635;51.198;6.010;2024-03-06T00:12:32;101591.38;;;11.74;60.54
70976;BME280;58635;51.198;6.010;2024-03-06T00:14:58;101595.94;;;11.72;60.49
70976;BME280;58635;51.198;6.010;2024-03-06T00:17:23;101597.88;;;11.70;60.50
70976;BME280;58635;51.198;6.010;2024-03-06T00:19:48;101604.88;;;11.69;60.40
70976;BME280;58635;51.198;6.010;2024-03-06T00:22:14;101592.88;;;11.68;60.39
70976;BME280;58635;51.198;6.010;2024-03-06T00:24:39;101591.09;;;11.69;60.62
70976;BME280;58635;51.198;6.010;2024-03-06T00:27:05;101595.66;;;11.67;60.62
70976;BME280;58635;51.198;6.010;2024-03-06T00:29:31;101595.94;;;11.72;60.58
70976;BME280;58635;51.198;6.010;2024-03-06T00:31:56;101600.16;;;11.73;60.49
70976;BME280;58635;51.198;6.010;2024-03-06T00:34:22;101611.31;;;11.74;60.40
70976;BME280;58635;51.198;6.010;2024-03-06T00:36:47;101606.94;;;11.74;60.47
70976;BME280;58635;51.198;6.010;2024-03-06T00:39:13;101621.69;;;11.74;60.51
70976;BME280;58635;51.198;6.010;2024-03-06T00:41:39;101617.47;;;11.73;60.35
70976;BME280;58635;51.198;6.010;2024-03-06T00:44:05;101615.69;;;11.73;60.40
70976;BME280;58635;51.198;6.010;2024-03-06T00:46:31;101615.03;;;11.71;60.40
70976;BME280;58635;51.198;6.010;2024-03-06T00:48:56;101620.88;;;11.73;60.40
70976;BME280;58635;51.198;6.010;2024-03-06T00:51:22;101623.19;;;11.68;60.43
70976;BME280;58635;51.198;6.010;2024-03-06T00:53:47;101620.59;;;11.68;60.53
70976;BME280;58635;51.198;6.010;2024-03-06T00:56:13;101616.41;;;11.67;60.44
70976;BME280;58635;51.198;6.010;2024-03-06T00:58:38;101624.34;;;11.65;60.55
70976;BME280;58635;51.198;6.010;2024-03-06T01:01:03;101623.75;;;11.63;60.25
70976;BME280;58635;51.198;6.010;2024-03-06T01:03:29;101623.28;;;11.60;60.22
70976;BME280;58635;51.198;6.010;2024-03-06T01:05:54;101630.59;;;11.56;60.17
70976;BME280;58635;51.198;6.010;2024-03-06T01:08:22;101631.94;;;11.52;60.35
70976;BME280;58635;51.198;6.010;2024-03-06T01:10:50;101631.34;;;11.50;60.35
70976;BME280;58635;51.198;6.010;2024-03-06T01:13:15;101637.66;;;11.48;60.36
70976;BME280;58635;51.198;6.010;2024-03-06T01:15:41;101642.56;;;11.42;60.38
70976;BME280;58635;51.198;6.010;2024-03-06T01:18:06;101640.34;;;11.39;60.57
70976;BME280;58635;51.198;6.010;2024-03-06T01:20:32;101640.06;;;11.34;60.50
70976;BME280;58635;51.198;6.010;2024-03-06T01:22:57;101637.81;;;11.31;60.42
70976;BME280;58635;51.198;6.010;2024-03-06T01:25:23;101643.38;;;11.28;60.59
70976;BME280;58635;51.198;6.010;2024-03-06T01:27:49;101653.72;;;11.28;60.45
70976;BME280;58635;51.198;6.010;2024-03-06T01:30:15;101651.50;;;11.25;60.64
70976;BME280;58635;51.198;6.010;2024-03-06T01:32:40;101650.22;;;11.21;60.46
70976;BME280;58635;51.198;6.010;2024-03-06T01:35:06;101648.97;;;11.17;60.40
70976;BME280;58635;51.198;6.010;2024-03-06T01:37:32;101650.13;;;11.15;60.43
70976;BME280;58635;51.198;6.010;2024-03-06T01:39:58;101646.09;;;11.12;60.32
70976;BME280;58635;51.198;6.010;2024-03-06T01:42:23;101648.22;;;11.08;60.19
70976;BME280;58635;51.198;6.010;2024-03-06T01:44:49;101649.41;;;11.06;60.33
70976;BME280;58635;51.198;6.010;2024-03-06T01:47:14;101647.78;;;11.05;60.31
70976;BME280;58635;51.198;6.010;2024-03-06T01:49:40;101649.75;;;11.03;60.34
70976;BME280;58635;51.198;6.010;2024-03-06T01:52:05;101650.72;;;11.02;60.44
70976;BME280;58635;51.198;6.010;2024-03-06T01:54:31;101654.63;;;10.98;60.19
70976;BME280;58635;51.198;6.010;2024-03-06T01:56:57;101654.00;;;10.96;60.44
70976;BME280;58635;51.198;6.010;2024-03-06T01:59:25;101652.41;;;10.95;60.15
70976;BME280;58635;51.198;6.010;2024-03-06T02:01:54;101662.13;;;10.93;60.30
70976;BME280;58635;51.198;6.010;2024-03-06T02:04:20;101665.88;;;10.90;60.24
70976;BME280;58635;51.198;6.010;2024-03-06T02:06:46;101669.59;;;10.88;60.17
70976;BME280;58635;51.198;6.010;2024-03-06T02:09:12;101669.75;;;10.86;60.16
70976;BME280;58635;51.198;6.010;2024-03-06T02:11:38;101667.34;;;10.84;60.17
70976;BME280;58635;51.198;6.010;2024-03-06T02:14:04;101676.44;;;10.80;60.32
70976;BME280;58635;51.198;6.010;2024-03-06T02:16:31;101684.84;;;10.82;60.39
70976;BME280;58635;51.198;6.010;2024-03-06T02:18:57;101681.81;;;10.79;60.37
70976;BME280;58635;51.198;6.010;2024-03-06T02:21:24;101680.19;;;10.78;60.43
70976;BME280;58635;51.198;6.010;2024-03-06T02:23:50;101677.75;;;10.76;60.49
70976;BME280;58635;51.198;6.010;2024-03-06T02:26:21;101684.72;;;10.76;60.59
70976;BME280;58635;51.198;6.010;2024-03-06T02:28:50;101689.09;;;10.75;60.59
70976;BME280;58635;51.198;6.010;2024-03-06T02:31:17;101682.31;;;10.74;60.74
70976;BME280;58635;51.198;6.010;2024-03-06T02:33:46;101682.47;;;10.73;60.77
70976;BME280;58635;51.198;6.010;2024-03-06T02:36:13;101685.88;;;10.73;60.82
70976;BME280;58635;51.198;6.010;2024-03-06T02:38:39;101690.06;;;10.74;60.59
70976;BME280;58635;51.198;6.010;2024-03-06T02:41:05;101680.88;;;10.72;60.97
70976;BME280;58635;51.198;6.010;2024-03-06T02:43:34;101680.06;;;10.71;60.73
70976;BME280;58635;51.198;6.010;2024-03-06T02:46:00;101683.09;;;10.75;60.74
70976;BME280;58635;51.198;6.010;2024-03-06T02:48:26;101677.94;;;10.75;60.93
70976;BME280;58635;51.198;6.010;2024-03-06T02:50:51;101676.31;;;10.74;60.77
70976;BME280;58635;51.198;6.010;2024-03-06T02:53:17;101683.91;;;10.75;60.62
70976;BME280;58635;51.198;6.010;2024-03-06T02:55:42;101682.94;;;10.76;60.69
70976;BME280;58635;51.198;6.010;2024-03-06T02:58:08;101670.97;;;10.75;60.79
70976;BME280;58635;51.198;6.010;2024-03-06T03:00:33;101675.16;;;10.76;60.69
70976;BME280;58635;51.198;6.010;2024-03-06T03:02:58;101676.16;;;10.75;60.71
70976;BME280;58635;51.198;6.010;2024-03-06T03:05:24;101676.94;;;10.76;60.67
70976;BME280;58635;51.198;6.010;2024-03-06T03:07:50;101676.94;;;10.76;60.61
70976;BME280;58635;51.198;6.010;2024-03-06T03:10:16;101677.13;;;10.74;60.63
70976;BME280;58635;51.198;6.010;2024-03-06T03:12:42;101680.88;;;10.72;60.40
70976;BME280;58635;51.198;6.010;2024-03-06T03:15:08;101686.22;;;10.70;60.46
70976;BME280;58635;51.198;6.010;2024-03-06T03:17:33;101690.75;;;10.68;60.48
70976;BME280;58635;51.198;6.010;2024-03-06T03:19:59;101688.97;;;10.69;60.30
70976;BME280;58635;51.198;6.010;2024-03-06T03:22:25;101686.09;;;10.64;60.42
70976;BME280;58635;51.198;6.010;2024-03-06T03:24:50;101687.88;;;10.63;60.47
70976;BME280;58635;51.198;6.010;2024-03-06T03:27:16;101688.03;;;10.62;60.33
70976;BME280;58635;51.198;6.010;2024-03-06T03:29:41;101677.88;;;10.60;60.43
70976;BME280;58635;51.198;6.010;2024-03-06T03:32:06;101687.59;;;10.58;60.34
70976;BME280;58635;51.198;6.010;2024-03-06T03:34:34;101687.13;;;10.54;60.29
70976;BME280;58635;51.198;6.010;2024-03-06T03:36:59;101685.84;;;10.50;60.17
70976;BME280;58635;51.198;6.010;2024-03-06T03:39:25;101684.41;;;10.48;60.42
70976;BME280;58635;51.198;6.010;2024-03-06T03:41:52;101682.97;;;10.45;60.34
70976;BME280;58635;51.198;6.010;2024-03-06T03:44:17;101687.53;;;10.43;60.35
70976;BME280;58635;51.198;6.010;2024-03-06T03:46:45;101697.19;;;10.41;60.36
70976;BME280;58635;51.198;6.010;2024-03-06T03:49:11;101697.56;;;10.38;60.36
70976;BME280;58635;51.198;6.010;2024-03-06T03:51:38;101705.66;;;10.35;60.55
70976;BME280;58635;51.198;6.010;2024-03-06T03:54:04;101711.16;;;10.32;60.55
70976;BME280;58635;51.198;6.010;2024-03-06T03:56:30;101705.38;;;10.30;60.55
70976;BME280;58635;51.198;6.010;2024-03-06T03:58:56;101705.50;;;10.29;60.57
70976;BME280;58635;51.198;6.010;2024-03-06T04:01:23;101709.25;;;10.26;60.68
70976;BME280;58635;51.198;6.010;2024-03-06T04:03:48;101710.22;;;10.25;60.57
70976;BME280;58635;51.198;6.010;2024-03-06T04:06:14;101714.09;;;10.21;60.39
70976;BME280;58635;51.198;6.010;2024-03-06T04:08:39;101712.47;;;10.20;60.27
70976;BME280;58635;51.198;6.010;2024-03-06T04:11:06;101709.22;;;10.18;60.22
70976;BME280;58635;51.198;6.010;2024-03-06T04:13:37;101713.94;;;10.14;60.10
70976;BME280;58635;51.198;6.010;2024-03-06T04:16:03;101716.88;;;10.11;60.28
70976;BME280;58635;51.198;6.010;2024-03-06T04:18:29;101726.56;;;10.09;60.07
70976;BME280;58635;51.198;6.010;2024-03-06T04:20:59;101722.69;;;10.05;60.27
70976;BME280;58635;51.198;6.010;2024-03-06T04:23:24;101728.84;;;10.04;60.17
70976;BME280;58635;51.198;6.010;2024-03-06T04:25:49;101733.38;;;10.02;60.19
70976;BME280;58635;51.198;6.010;2024-03-06T04:28:15;101737.09;;;10.00;60.22
70976;BME280;58635;51.198;6.010;2024-03-06T04:30:40;101732.56;;;9.93;60.02
70976;BME280;58635;51.198;6.010;2024-03-06T04:33:06;101741.81;;;9.96;60.22
70976;BME280;58635;51.198;6.010;2024-03-06T04:35:31;101750.53;;;9.95;60.22
70976;BME280;58635;51.198;6.010;2024-03-06T04:37:56;101748.75;;;9.95;60.21
70976;BME280;58635;51.198;6.010;2024-03-06T04:40:22;101751.34;;;9.95;60.27
70976;BME280;58635;51.198;6.010;2024-03-06T04:42:50;101758.28;;;9.95;60.22
70976;BME280;58635;51.198;6.010;2024-03-06T04:45:16;101768.63;;;9.95;60.22
70976;BME280;58635;51.198;6.010;2024-03-06T04:47:42;101769.56;;;9.94;60.30
70976;BME280;58635;51.198;6.010;2024-03-06T04:50:11;101762.94;;;9.91;60.33
70976;BME280;58635;51.198;6.010;2024-03-06T04:52:39;101769.25;;;9.89;60.37
70976;BME280;58635;51.198;6.010;2024-03-06T04:55:06;101777.00;;;9.89;60.35
70976;BME280;58635;51.198;6.010;2024-03-06T04:57:31;101773.00;;;9.86;60.40
70976;BME280;58635;51.198;6.010;2024-03-06T04:59:57;101768.63;;;9.87;60.17
70976;BME280;58635;51.198;6.010;2024-03-06T05:02:23;101767.00;;;9.86;60.28
70976;BME280;58635;51.198;6.010;2024-03-06T05:04:50;101773.16;;;9.85;60.28
70976;BME280;58635;51.198;6.010;2024-03-06T05:07:15;101771.69;;;9.82;60.05
70976;BME280;58635;51.198;6.010;2024-03-06T05:09:41;101780.41;;;9.81;60.06
70976;BME280;58635;51.198;6.010;2024-03-06T05:12:07;101780.75;;;9.78;59.87
70976;BME280;58635;51.198;6.010;2024-03-06T05:14:32;101775.09;;;9.75;59.91
70976;BME280;58635;51.198;6.010;2024-03-06T05:16:58;101783.19;;;9.72;59.95
70976;BME280;58635;51.198;6.010;2024-03-06T05:19:23;101785.25;;;9.68;59.91
70976;BME280;58635;51.198;6.010;2024-03-06T05:21:48;101785.59;;;9.65;60.11
70976;BME280;58635;51.198;6.010;2024-03-06T05:24:14;101786.09;;;9.60;60.07
70976;BME280;58635;51.198;6.010;2024-03-06T05:26:39;101794.66;;;9.61;59.99
70976;BME280;58635;51.198;6.010;2024-03-06T05:29:05;101795.13;;;9.56;59.92
70976;BME280;58635;51.198;6.010;2024-03-06T05:31:30;101803.03;;;9.55;59.81
70976;BME280;58635;51.198;6.010;2024-03-06T05:33:55;101798.84;;;9.54;59.86
70976;BME280;58635;51.198;6.010;2024-03-06T05:36:21;101812.09;;;9.51;59.82
70976;BME280;58635;51.198;6.010;2024-03-06T05:38:46;101814.19;;;9.47;59.67
70976;BME280;58635;51.198;6.010;2024-03-06T05:41:13;101813.50;;;9.45;59.88
70976;BME280;58635;51.198;6.010;2024-03-06T05:43:38;101821.44;;;9.44;59.88
70976;BME280;58635;51.198;6.010;2024-03-06T05:46:06;101823.38;;;9.42;59.73
70976;BME280;58635;51.198;6.010;2024-03-06T05:48:31;101823.53;;;9.40;59.64
70976;BME280;58635;51.198;6.010;2024-03-06T05:50:58;101831.44;;;9.38;59.63
70976;BME280;58635;51.198;6.010;2024-03-06T05:53:23;101830.94;;;9.35;59.51
70976;BME280;58635;51.198;6.010;2024-03-06T05:55:49;101829.47;;;9.32;59.82
70976;BME280;58635;51.198;6.010;2024-03-06T05:58:14;101827.06;;;9.31;59.81
70976;BME280;58635;51.198;6.010;2024-03-06T06:00:41;101837.72;;;9.28;59.79
70976;BME280;58635;51.198;6.010;2024-03-06T06:03:08;101843.03;;;9.26;59.60
70976;BME280;58635;51.198;6.010;2024-03-06T06:05:33;101839.00;;;9.24;59.76
70976;BME280;58635;51.198;6.010;2024-03-06T06:07:58;101845.91;;;9.23;59.83
70976;BME280;58635;51.198;6.010;2024-03-06T06:10:25;101848.81;;;9.20;59.66
70976;BME280;58635;51.198;6.010;2024-03-06T06:12:53;101847.53;;;9.16;59.61
70976;BME280;58635;51.198;6.010;2024-03-06T06:15:19;101850.28;;;9.15;59.56
70976;BME280;58635;51.198;6.010;2024-03-06T06:17:45;101852.84;;;9.15;59.64
70976;BME280;58635;51.198;6.010;2024-03-06T06:20:11;101853.66;;;9.15;59.64
70976;BME280;58635;51.198;6.010;2024-03-06T06:22:40;101858.00;;;9.15;59.65
70976;BME280;58635;51.198;6.010;2024-03-06T06:25:06;101868.50;;;9.13;59.69
70976;BME280;58635;51.198;6.010;2024-03-06T06:27:33;101869.31;;;9.14;59.66
70976;BME280;58635;51.198;6.010;2024-03-06T06:29:58;101873.81;;;9.12;59.85
70976;BME280;58635;51.198;6.010;2024-03-06T06:32:24;101873.81;;;9.12;59.72
70976;BME280;58635;51.198;6.010;2024-03-06T06:34:49;101871.38;;;9.10;59.86
70976;BME280;58635;51.198;6.010;2024-03-06T06:37:15;101877.50;;;9.09;60.05
70976;BME280;58635;51.198;6.010;2024-03-06T06:39:41;101875.72;;;9.09;59.88
70976;BME280;58635;51.198;6.010;2024-03-06T06:42:06;101880.59;;;9.13;59.77
70976;BME280;58635;51.198;6.010;2024-03-06T06:44:32;101882.84;;;9.16;59.82
70976;BME280;58635;51.198;6.010;2024-03-06T06:46:57;101891.41;;;9.16;59.89
70976;BME280;58635;51.198;6.010;2024-03-06T06:49:22;101893.66;;;9.19;59.83
70976;BME280;58635;51.198;6.010;2024-03-06T06:51:49;101894.16;;;9.23;59.64
70976;BME280;58635;51.198;6.010;2024-03-06T06:54:14;101904.34;;;9.24;59.63
70976;BME280;58635;51.198;6.010;2024-03-06T06:56:40;101910.31;;;9.25;59.65
70976;BME280;58635;51.198;6.010;2024-03-06T06:59:05;101910.31;;;9.25;59.52
70976;BME280;58635;51.198;6.010;2024-03-06T07:01:30;101906.78;;;9.26;59.50
70976;BME280;58635;51.198;6.010;2024-03-06T07:03:58;101915.00;;;9.29;59.52
70976;BME280;58635;51.198;6.010;2024-03-06T07:06:24;101911.44;;;9.30;59.51
70976;BME280;58635;51.198;6.010;2024-03-06T07:08:50;101922.41;;;9.32;59.54
70976;BME280;58635;51.198;6.010;2024-03-06T07:11:17;101923.88;;;9.35;59.42
70976;BME280;58635;51.198;6.010;2024-03-06T07:13:43;101928.59;;;9.40;59.54
70976;BME280;58635;51.198;6.010;2024-03-06T07:16:08;101932.47;;;9.44;59.34
70976;BME280;58635;51.198;6.010;2024-03-06T07:18:34;101930.41;;;9.47;59.31
70976;BME280;58635;51.198;6.010;2024-03-06T07:21:00;101932.16;;;9.55;59.29
70976;BME280;58635;51.198;6.010;2024-03-06T07:23:25;101934.28;;;9.59;59.40
70976;BME280;58635;51.198;6.010;2024-03-06T07:25:50;101932.03;;;9.64;59.27
70976;BME280;58635;51.198;6.010;2024-03-06T07:28:16;101940.09;;;9.70;59.30
70976;BME280;58635;51.198;6.010;2024-03-06T07:30:41;101937.69;;;9.76;59.20
70976;BME280;58635;51.198;6.010;2024-03-06T07:33:07;101941.13;;;9.85;59.49
70976;BME280;58635;51.198;6.010;2024-03-06T07:35:33;101944.81;;;9.90;59.06
70976;BME280;58635;51.198;6.010;2024-03-06T07:38:01;101948.22;;;9.99;59.01
70976;BME280;58635;51.198;6.010;2024-03-06T07:40:29;101943.06;;;10.07;58.86
70976;BME280;58635;51.198;6.010;2024-03-06T07:42:55;101948.22;;;10.15;58.85
70976;BME280;58635;51.198;6.010;2024-03-06T07:45:20;101946.78;;;10.21;58.68
70976;BME280;58635;51.198;6.010;2024-03-06T07:47:46;101960.03;;;10.26;58.74
70976;BME280;58635;51.198;6.010;2024-03-06T07:50:11;101961.19;;;10.32;58.52
70976;BME280;58635;51.198;6.010;2024-03-06T07:52:38;101956.81;;;10.40;58.48
70976;BME280;58635;51.198;6.010;2024-03-06T07:55:03;101959.72;;;10.45;58.46
70976;BME280;58635;51.198;6.010;2024-03-06T07:57:29;101972.16;;;10.50;58.42
70976;BME280;58635;51.198;6.010;2024-03-06T07:59:54;101973.75;;;10.51;58.43
70976;BME280;58635;51.198;6.010;2024-03-06T08:02:20;101973.13;;;10.57;58.23
70976;BME280;58635;51.198;6.010;2024-03-06T08:04:46;101968.41;;;10.61;58.08
70976;BME280;58635;51.198;6.010;2024-03-06T08:07:12;101973.25;;;10.64;57.99
70976;BME280;58635;51.198;6.010;2024-03-06T08:09:38;101981.53;;;10.67;58.04
70976;BME280;58635;51.198;6.010;2024-03-06T08:12:04;101983.59;;;10.72;58.18
70976;BME280;58635;51.198;6.010;2024-03-06T08:14:29;101988.28;;;10.76;57.96
70976;BME280;58635;51.198;6.010;2024-03-06T08:16:55;101991.84;;;10.83;57.74
70976;BME280;58635;51.198;6.010;2024-03-06T08:19:20;101993.09;;;10.88;57.75
70976;BME280;58635;51.198;6.010;2024-03-06T08:21:46;101997.47;;;10.95;57.42
70976;BME280;58635;51.198;6.010;2024-03-06T08:24:12;102002.13;;;11.00;57.45
70976;BME280;58635;51.198;6.010;2024-03-06T08:26:37;102005.38;;;11.02;57.24
70976;BME280;58635;51.198;6.010;2024-03-06T08:29:03;102011.03;;;11.05;57.15
70976;BME280;58635;51.198;6.010;2024-03-06T08:31:28;102008.75;;;11.10;56.96
70976;BME280;58635;51.198;6.010;2024-03-06T08:33:54;102016.19;;;11.13;56.99
70976;BME280;58635;51.198;6.010;2024-03-06T08:36:19;102015.84;;;11.17;56.99
70976;BME280;58635;51.198;6.010;2024-03-06T08:38:46;102020.06;;;11.18;56.86
70976;BME280;58635;51.198;6.010;2024-03-06T08:41:11;102016.97;;;11.22;56.66
70976;BME280;58635;51.198;6.010;2024-03-06T08:43:37;102025.06;;;11.27;56.54
70976;BME280;58635;51.198;6.010;2024-03-06T08:46:02;102023.38;;;11.34;56.30
70976;BME280;58635;51.198;6.010;2024-03-06T08:48:28;102025.50;;;11.39;56.54
70976;BME280;58635;51.198;6.010;2024-03-06T08:50:55;102025.78;;;11.44;56.30
70976;BME280;58635;51.198;6.010;2024-03-06T08:53:20;102031.44;;;11.48;56.07
70976;BME280;58635;51.198;6.010;2024-03-06T08:55:46;102030.47;;;11.49;56.07
70976;BME280;58635;51.198;6.010;2024-03-06T08:58:12;102038.88;;;11.51;56.26
70976;BME280;58635;51.198;6.010;2024-03-06T09:00:39;102038.72;;;11.52;56.33
70976;BME280;58635;51.198;6.010;2024-03-06T09:03:04;102045.50;;;11.53;55.98
70976;BME280;58635;51.198;6.010;2024-03-06T09:05:30;102037.56;;;11.55;56.25
70976;BME280;58635;51.198;6.010;2024-03-06T09:07:56;102043.03;;;11.60;55.90
70976;BME280;58635;51.198;6.010;2024-03-06T09:10:22;102045.94;;;11.65;55.92
70976;BME280;58635;51.198;6.010;2024-03-06T09:12:48;102043.47;;;11.71;55.97
70976;BME280;58635;51.198;6.010;2024-03-06T09:15:14;102049.47;;;11.80;55.77
70976;BME280;58635;51.198;6.010;2024-03-06T09:17:40;102045.56;;;11.84;55.49
70976;BME280;58635;51.198;6.010;2024-03-06T09:20:07;102044.22;;;11.88;55.84
70976;BME280;58635;51.198;6.010;2024-03-06T09:22:39;102051.31;;;11.94;55.45
70976;BME280;58635;51.198;6.010;2024-03-06T09:25:06;102049.38;;;11.96;55.29
70976;BME280;58635;51.198;6.010;2024-03-06T09:27:31;102055.19;;;11.98;55.16
70976;BME280;58635;51.198;6.010;2024-03-06T09:29:57;102058.09;;;11.95;55.11
70976;BME280;58635;51.198;6.010;2024-03-06T09:32:22;102062.50;;;11.95;55.07
70976;BME280;58635;51.198;6.010;2024-03-06T09:34:48;102062.00;;;11.99;55.13
70976;BME280;58635;51.198;6.010;2024-03-06T09:37:14;102062.09;;;12.06;55.02
70976;BME280;58635;51.198;6.010;2024-03-06T09:39:40;102062.59;;;12.10;54.84
70976;BME280;58635;51.198;6.010;2024-03-06T09:42:05;102066.63;;;12.12;55.07
70976;BME280;58635;51.198;6.010;2024-03-06T09:44:31;102071.00;;;12.12;55.13
70976;BME280;58635;51.198;6.010;2024-03-06T09:46:59;102067.59;;;12.11;55.14
70976;BME280;58635;51.198;6.010;2024-03-06T09:49:27;102067.41;;;12.13;54.96
70976;BME280;58635;51.198;6.010;2024-03-06T09:51:53;102070.81;;;12.13;55.11
70976;BME280;58635;51.198;6.010;2024-03-06T09:54:20;102070.03;;;12.13;54.98
70976;BME280;58635;51.198;6.010;2024-03-06T09:56:47;102075.84;;;12.15;54.98
70976;BME280;58635;51.198;6.010;2024-03-06T09:59:13;102068.50;;;12.18;55.11
70976;BME280;58635;51.198;6.010;2024-03-06T10:01:50;102070.59;;;12.23;55.13
70976;BME280;58635;51.198;6.010;2024-03-06T10:04:25;102069.72;;;12.30;54.92
70976;BME280;58635;51.198;6.010;2024-03-06T10:06:58;102078.63;;;12.36;54.99
70976;BME280;58635;51.198;6.010;2024-03-06T10:09:24;102081.22;;;12.36;54.82
70976;BME280;58635;51.198;6.010;2024-03-06T10:11:50;102082.19;;;12.35;54.93
70976;BME280;58635;51.198;6.010;2024-03-06T10:14:19;102084.25;;;12.40;54.78
70976;BME280;58635;51.198;6.010;2024-03-06T10:16:58;102088.59;;;12.47;54.73
70976;BME280;58635;51.198;6.010;2024-03-06T10:19:25;102089.66;;;12.53;54.66
70976;BME280;58635;51.198;6.010;2024-03-06T10:21:53;102089.00;;;12.59;54.57
70976;BME280;58635;51.198;6.010;2024-03-06T10:24:20;102090.06;;;12.65;54.49
70976;BME280;58635;51.198;6.010;2024-03-06T10:26:46;102084.69;;;12.66;54.40
70976;BME280;58635;51.198;6.010;2024-03-06T10:29:17;102095.56;;;12.70;54.46
70976;BME280;58635;51.198;6.010;2024-03-06T10:31:51;102092.44;;;12.74;54.25
70976;BME280;58635;51.198;6.010;2024-03-06T10:34:17;102094.66;;;12.77;54.48
70976;BME280;58635;51.198;6.010;2024-03-06T10:36:43;102084.75;;;12.81;54.52
70976;BME280;58635;51.198;6.010;2024-03-06T10:39:11;102085.81;;;12.86;54.17
70976;BME280;58635;51.198;6.010;2024-03-06T10:41:40;102090.50;;;12.91;54.03
70976;BME280;58635;51.198;6.010;2024-03-06T10:44:11;102089.97;;;12.96;54.00
70976;BME280;58635;51.198;6.010;2024-03-06T10:46:41;102091.22;;;13.00;53.78
70976;BME280;58635;51.198;6.010;2024-03-06T10:49:09;102096.22;;;13.01;53.85
70976;BME280;58635;51.198;6.010;2024-03-06T10:51:38;102094.28;;;13.03;53.57
70976;BME280;58635;51.198;6.010;2024-03-06T10:54:08;102100.09;;;13.05;53.36
70976;BME280;58635;51.198;6.010;2024-03-06T10:56:34;102093.84;;;13.14;53.31
70976;BME280;58635;51.198;6.010;2024-03-06T10:58:59;102098.91;;;13.31;53.09
70976;BME280;58635;51.198;6.010;2024-03-06T11:01:25;102099.50;;;13.48;52.97
70976;BME280;58635;51.198;6.010;2024-03-06T11:03:51;102092.88;;;13.60;52.47
70976;BME280;58635;51.198;6.010;2024-03-06T11:06:17;102089.09;;;13.77;52.17
70976;BME280;58635;51.198;6.010;2024-03-06T11:08:43;102091.66;;;13.92;51.91
70976;BME280;58635;51.198;6.010;2024-03-06T11:11:23;102096.47;;;14.10;51.47
70976;BME280;58635;51.198;6.010;2024-03-06T11:13:49;102092.81;;;14.25;51.26
70976;BME280;58635;51.198;6.010;2024-03-06T11:16:14;102097.44;;;14.45;51.20
70976;BME280;58635;51.198;6.010;2024-03-06T11:23:33;102096.16;;;14.83;50.07
70976;BME280;58635;51.198;6.010;2024-03-06T11:26:03;102097.44;;;14.94;49.84
70976;BME280;58635;51.198;6.010;2024-03-06T11:28:31;102105.91;;;15.03;49.71
70976;BME280;58635;51.198;6.010;2024-03-06T11:30:58;102097.75;;;15.12;49.27
70976;BME280;58635;51.198;6.010;2024-03-06T11:33:37;102102.03;;;15.27;47.90
70976;BME280;58635;51.198;6.010;2024-03-06T11:36:17;102105.31;;;15.35;47.64
70976;BME280;58635;51.198;6.010;2024-03-06T11:39:07;102102.31;;;15.38;47.10
70976;BME280;58635;51.198;6.010;2024-03-06T11:41:49;102111.56;;;15.41;46.82
70976;BME280;58635;51.198;6.010;2024-03-06T11:44:16;102107.50;;;15.38;46.49
70976;BME280;58635;51.198;6.010;2024-03-06T11:47:05;102108.50;;;15.37;46.52
70976;BME280;58635;51.198;6.010;2024-03-06T11:49:33;102108.09;;;15.34;46.98
70976;BME280;58635;51.198;6.010;2024-03-06T11:52:08;102106.09;;;15.29;46.83
70976;BME280;58635;51.198;6.010;2024-03-06T11:54:34;102104.88;;;15.32;46.79
70976;BME280;58635;51.198;6.010;2024-03-06T11:57:02;102107.31;;;15.33;46.90
70976;BME280;58635;51.198;6.010;2024-03-06T11:59:30;102108.50;;;15.31;46.83
70976;BME280;58635;51.198;6.010;2024-03-06T12:02:01;102106.44;;;15.26;46.69
70976;BME280;58635;51.198;6.010;2024-03-06T12:04:27;102111.66;;;15.26;46.81
70976;BME280;58635;51.198;6.010;2024-03-06T12:06:56;102110.09;;;15.32;46.24
70976;BME280;58635;51.198;6.010;2024-03-06T12:09:23;102102.50;;;15.37;46.15
70976;BME280;58635;51.198;6.010;2024-03-06T12:11:48;102105.34;;;15.42;46.30
70976;BME280;58635;51.198;6.010;2024-03-06T12:14:18;102100.53;;;15.45;46.37
70976;BME280;58635;51.198;6.010;2024-03-06T12:16:56;102101.75;;;15.49;46.22
70976;BME280;58635;51.198;6.010;2024-03-06T12:19:22;102106.97;;;15.49;45.99
70976;BME280;58635;51.198;6.010;2024-03-06T12:21:48;102104.38;;;15.49;45.86
70976;BME280;58635;51.198;6.010;2024-03-06T12:24:16;102113.19;;;15.48;46.07
70976;BME280;58635;51.198;6.010;2024-03-06T12:26:44;102100.53;;;15.45;46.24
70976;BME280;58635;51.198;6.010;2024-03-06T12:29:11;102101.34;;;15.46;45.84
70976;BME280;58635;51.198;6.010;2024-03-06T12:31:38;102103.75;;;15.47;45.96
70976;BME280;58635;51.198;6.010;2024-03-06T12:34:06;102105.97;;;15.50;46.14
70976;BME280;58635;51.198;6.010;2024-03-06T12:36:32;102110.63;;;15.55;46.15
70976;BME280;58635;51.198;6.010;2024-03-06T12:39:02;102104.00;;;15.59;46.17
70976;BME280;58635;51.198;6.010;2024-03-06T12:41:29;102101.41;;;15.59;45.88
70976;BME280;58635;51.198;6.010;2024-03-06T12:43:55;102103.84;;;15.61;45.57
70976;BME280;58635;51.198;6.010;2024-03-06T12:46:22;102099.28;;;15.69;45.59
70976;BME280;58635;51.198;6.010;2024-03-06T12:48:47;102097.72;;;15.82;45.26
70976;BME280;58635;51.198;6.010;2024-03-06T12:51:13;102097.31;;;15.85;45.44
70976;BME280;58635;51.198;6.010;2024-03-06T12:53:38;102102.34;;;15.86;44.89